Observation data for Friona on 03/05/2021      Previous  Date  Next       Current Mesonet Observations  Soil Data  Daily Summary Page  Observations in Plain Language
KFAS 050600Z 32010KT 03/M07 A30 RMK A01 T00281068  RH  049%=      5-min Rain = 0
KFAS 050605Z 31010KT 03/M07 A30 RMK A01 T00251070  RH  050%=      5-min Rain = 0
KFAS 050610Z 31010KT 02/M07 A30 RMK A01 T00231070  RH  050%=      5-min Rain = 0
KFAS 050615Z 31010KT 02/M07 A30 RMK A01 T00211069  RH  051%=      5-min Rain = 0
KFAS 050620Z 31010KT 02/M07 A30 RMK A01 T00201069  RH  052%=      5-min Rain = 0
KFAS 050625Z 31010KT 02/M07 A30 RMK A01 T00211067  RH  052%=      5-min Rain = 0
KFAS 050630Z 31010KT 02/M06 A3001 RMK A01 T00221064  RH  053%=      5-min Rain = 0
KFAS 050635Z 31009KT 02/M06 A3001 RMK A01 T00221062  RH  054%=      5-min Rain = 0
KFAS 050640Z 31008KT 02/M06 A3001 RMK A01 T00211062  RH  054%=      5-min Rain = 0
KFAS 050645Z 31007KT 02/M06 A3001 RMK A01 T00191061  RH  055%=      5-min Rain = 0
KFAS 050650Z 30006KT 02/M06 A3001 RMK A01 T00181062  RH  056%=      5-min Rain = 0
KFAS 050655Z 29005KT 02/M06 A3001 RMK A01 T00181062  RH  055%=      5-min Rain = 0
KFAS 050700Z 29006KT 02/M06 A3002 RMK A01 T00171061  RH  056%=      5-min Rain = 0
KFAS 050705Z 31005KT 03/M06 A3002 RMK A01 T00261055  RH  055%=      5-min Rain = 0
KFAS 050710Z 31003KT 03/M06 A3002 RMK A01 T00251057  RH  055%=      5-min Rain = 0
KFAS 050715Z 32002KT 02/M06 A3002 RMK A01 T00241058  RH  055%=      5-min Rain = 0
KFAS 050720Z 33002KT 02/M06 A3002 RMK A01 T00231058  RH  055%=      5-min Rain = 0
KFAS 050725Z 28002KT 02/M06 A3002 RMK A01 T00221058  RH  056%=      5-min Rain = 0
KFAS 050730Z 28004KT 02/M06 A3002 RMK A01 T00221057  RH  056%=      5-min Rain = 0
KFAS 050735Z 29004KT 02/M06 A3002 RMK A01 T00171059  RH  057%=      5-min Rain = 0
KFAS 050740Z 30007KT 02/M05 A3002 RMK A01 T00171051  RH  061%=      5-min Rain = 0
KFAS 050745Z 31006KT 01/M06 A3003 RMK A01 T00111057  RH  061%=      5-min Rain = 0
KFAS 050750Z 31007KT 01/M06 A3003 RMK A01 T00071055  RH  063%=      5-min Rain = 0
KFAS 050755Z 31008KT 02/M04 A3003 RMK A01 T00151043  RH  065%=      5-min Rain = 0
KFAS 050800Z 31008KT 03/M04 A3003 RMK A01 T00281037  RH  063%=      5-min Rain = 0
KFAS 050805Z 30008KT 03/M04 A3003 RMK A01 T00271037  RH  063%=      5-min Rain = 0
KFAS 050810Z 31009KT 03/M04 A3003 RMK A01 T00281036  RH  063%=      5-min Rain = 0
KFAS 050815Z 31010KT 04/M03 A3003 RMK A01 T00381029  RH  062%=      5-min Rain = 0
KFAS 050820Z 31011G16KT 04/M03 A3003 RMK A01 T00441027  RH  060%=      5-min Rain = 0
KFAS 050825Z 30010KT 04/M03 A3003 RMK A01 T00441027  RH  060%=      5-min Rain = 0
KFAS 050830Z 30010KT 04/M03 A3003 RMK A01 T00421026  RH  061%=      5-min Rain = 0
KFAS 050835Z 31011KT 05/M02 A3003 RMK A01 T00451023  RH  061%=      5-min Rain = 0
KFAS 050840Z 32012KT 05/M02 A3003 RMK A01 T00501021  RH  061%=      5-min Rain = 0
KFAS 050845Z 32012KT 05/M02 A3003 RMK A01 T00481021  RH  061%=      5-min Rain = 0
KFAS 050850Z 32011KT 05/M02 A3003 RMK A01 T00461021  RH  062%=      5-min Rain = 0
KFAS 050855Z 33011KT 05/M02 A3003 RMK A01 T00461019  RH  063%=      5-min Rain = 0
KFAS 050900Z 33014G19KT 05/M02 A3003 RMK A01 T00491017  RH  063%=      5-min Rain = 0
KFAS 050905Z 33016G21KT 05/M01 A3003 RMK A01 T00531013  RH  063%=      5-min Rain = 0
KFAS 050910Z 33014KT 05/M01 A3003 RMK A01 T00521013  RH  063%=      5-min Rain = 0
KFAS 050915Z 32013KT 05/M01 A3003 RMK A01 T00501014  RH  064%=      5-min Rain = 0
KFAS 050920Z 32012KT 05/M01 A3003 RMK A01 T00491014  RH  064%=      5-min Rain = 0
KFAS 050925Z 32015KT 05/M01 A3003 RMK A01 T00481012  RH  065%=      5-min Rain = 0
KFAS 050930Z 33018G23KT 05/M01 A3003 RMK A01 T00531009  RH  065%=      5-min Rain = 0
KFAS 050935Z 32017KT 05/M01 A3003 RMK A01 T00531010  RH  065%=      5-min Rain = 0
KFAS 050940Z 32016KT 05/M01 A3003 RMK A01 T00521010  RH  065%=      5-min Rain = 0
KFAS 050945Z 31017KT 05/M01 A3003 RMK A01 T00521010  RH  065%=      5-min Rain = 0
KFAS 050950Z 31017G22KT 05/M01 A3003 RMK A01 T00531008  RH  065%=      5-min Rain = 0
KFAS 050955Z 32019G25KT 05/M01 A3003 RMK A01 T00541006  RH  066%=      5-min Rain = 0
KFAS 051000Z 32020KT 05/M01 A3003 RMK A01 T00541005  RH  066%=      5-min Rain = 0
KFAS 051005Z 32020KT 06/M00 A3003 RMK A01 T00551004  RH  066%=      5-min Rain = 0
KFAS 051010Z 32020G26KT 06/M00 A3004 RMK A01 T00551004  RH  067%=      5-min Rain = 0
KFAS 051015Z 32020G25KT 05/M00 A3004 RMK A01 T00541004  RH  067%=      5-min Rain = 0
KFAS 051020Z 32022G29KT 05/M00 A3004 RMK A01 T00541004  RH  067%=      5-min Rain = 0
KFAS 051025Z 32022G28KT 06/M00 A3004 RMK A01 T00551004  RH  066%=      5-min Rain = 0
KFAS 051030Z 32021G27KT 06/M00 A3004 RMK A01 T00551004  RH  066%=      5-min Rain = 0
KFAS 051035Z 32022G28KT 06/M01 A3004 RMK A01 T00551005  RH  066%=      5-min Rain = 0
KFAS 051040Z 32022KT 06/M01 A3004 RMK A01 T00561005  RH  066%=      5-min Rain = 0
KFAS 051045Z 33024G30KT 06/M00 A3005 RMK A01 T00591002  RH  065%=      5-min Rain = 0
KFAS 051050Z 33023G30KT 06/00 A3005 RMK A01 T006300-0  RH  064%=      5-min Rain = 0
KFAS 051055Z 33025G31KT 07/00 A3005 RMK A01 T00660001  RH  064%=      5-min Rain = 0
KFAS 051100Z 33025G32KT 07/00 A3005 RMK A01 T00680001  RH  063%=      5-min Rain = 0
KFAS 051105Z 32027G33KT 07/00 A3005 RMK A01 T00690002  RH  063%=      5-min Rain = 0
KFAS 051110Z 32025G31KT 07/00 A3006 RMK A01 T00690002  RH  063%=      5-min Rain = 0
KFAS 051115Z 32026G34KT 07/00 A3006 RMK A01 T00690003  RH  064%=      5-min Rain = 0
KFAS 051120Z 32025G34KT 07/00 A3006 RMK A01 T00680004  RH  064%=      5-min Rain = 0
KFAS 051125Z 32025G31KT 07/00 A3006 RMK A01 T00650004  RH  066%=      5-min Rain = 0
KFAS 051130Z 32027G34KT 06/01 A3006 RMK A01 T00640006  RH  067%=      5-min Rain = 0
KFAS 051135Z 33026G31KT 06/01 A3006 RMK A01 T00630007  RH  068%=      5-min Rain = 0
KFAS 051140Z 33027G33KT 06/01 A3007 RMK A01 T00630009  RH  069%=      5-min Rain = 0
KFAS 051145Z 33027G34KT 06/01 A3007 RMK A01 T00630008  RH  069%=      5-min Rain = 0
KFAS 051150Z 33027G36KT 06/01 A3007 RMK A01 T00630008  RH  069%=      5-min Rain = 0
KFAS 051155Z 33027G33KT 07/01 A3007 RMK A01 T00660010  RH  068%=      5-min Rain = 0
KFAS 051200Z 33028G35KT 07/01 A3007 RMK A01 T00690012  RH  068%=      5-min Rain = 0
KFAS 051205Z 33029G38KT 07/01 A3007 RMK A01 T00690011  RH  067%=      5-min Rain = 0
KFAS 051210Z 33030G37KT 07/01 A3008 RMK A01 T00690011  RH  067%=      5-min Rain = 0
KFAS 051215Z 33029G36KT 07/01 A3008 RMK A01 T00690011  RH  068%=      5-min Rain = 0
KFAS 051220Z 33027G39KT 07/01 A3009 RMK A01 T00690012  RH  068%=      5-min Rain = 0
KFAS 051225Z 34028G38KT 07/02 A3009 RMK A01 T00690017  RH  071%=      5-min Rain = 0
KFAS 051230Z 33029G38KT 07/02 A301 RMK A01 T00680021  RH  073%=      5-min Rain = 0
KFAS 051235Z 34027G32KT 07/02 A301 RMK A01 T00670024  RH  075%=      5-min Rain = 0
KFAS 051240Z 34029G36KT 07/03 A3011 RMK A01 T00660027  RH  077%=      5-min Rain = 0
KFAS 051245Z 34027G34KT 06/03 A3011 RMK A01 T00630030  RH  081%=      5-min Rain = 0
KFAS 051250Z 34027G33KT 06/03 A3011 RMK A01 T00630034  RH  083%=      5-min Rain = 0
KFAS 051255Z 34024G32KT 06/04 A3012 RMK A01 T00610036  RH  086%=      5-min Rain = 0
KFAS 051300Z 35024G32KT 06/04 A3012 RMK A01 T00610037  RH  086%=      5-min Rain = 0
KFAS 051305Z 35025G31KT 06/03 A3012 RMK A01 T00630034  RH  083%=      5-min Rain = 0
KFAS 051310Z 34023G29KT 07/03 A3013 RMK A01 T00650031  RH  080%=      5-min Rain = 0
KFAS 051315Z 34023G31KT 07/03 A3013 RMK A01 T00660028  RH  078%=      5-min Rain = 0
KFAS 051320Z 34027G35KT 07/03 A3013 RMK A01 T00670025  RH  075%=      5-min Rain = 0
KFAS 051325Z 34027G33KT 07/02 A3013 RMK A01 T00670022  RH  074%=      5-min Rain = 0
KFAS 051330Z 35030G37KT 07/02 A3013 RMK A01 T00660022  RH  074%=      5-min Rain = 0
KFAS 051335Z 35027G34KT 07/02 A3013 RMK A01 T00660022  RH  075%=      5-min Rain = 0
KFAS 051340Z 35027G34KT 07/02 A3013 RMK A01 T00670023  RH  075%=      5-min Rain = 0
KFAS 051345Z 35026G33KT 07/02 A3013 RMK A01 T00670023  RH  074%=      5-min Rain = 0
KFAS 051350Z 35029G37KT 07/02 A3012 RMK A01 T00680023  RH  075%=      5-min Rain = 0
KFAS 051355Z 35029G35KT 07/02 A3012 RMK A01 T00690024  RH  074%=      5-min Rain = 0
KFAS 051400Z 35031G38KT 07/02 A3012 RMK A01 T00700023  RH  073%=      5-min Rain = 0
KFAS 051405Z 35032G41KT 07/02 A3012 RMK A01 T00690023  RH  074%=      5-min Rain = 0
KFAS 051410Z 35032G39KT 07/02 A3013 RMK A01 T00690023  RH  074%=      5-min Rain = 0
KFAS 051415Z 35032G39KT 07/02 A3013 RMK A01 T00680023  RH  074%=      5-min Rain = 0
KFAS 051420Z 35032G39KT 07/02 A3014 RMK A01 T00670023  RH  075%=      5-min Rain = 0
KFAS 051425Z 35027G35KT 07/02 A3015 RMK A01 T00670024  RH  075%=      5-min Rain = 0
KFAS 051430Z 35030G38KT 07/02 A3016 RMK A01 T00660024  RH  075%=      5-min Rain = 0
KFAS 051435Z 35030G38KT 06/02 A3017 RMK A01 T00640024  RH  077%=      5-min Rain = 0
KFAS 051440Z 35027G36KT 06/03 A3018 RMK A01 T00630026  RH  079%=      5-min Rain = 0
KFAS 051445Z 35029G35KT 06/03 A3018 RMK A01 T00600026  RH  080%=      5-min Rain = 0
KFAS 051450Z 35024G33KT 06/03 A3019 RMK A01 T00600027  RH  080%=      5-min Rain = 0
KFAS 051455Z 35024G29KT 06/03 A302 RMK A01 T00610026  RH  080%=      5-min Rain = 0
KFAS 051500Z 35022G31KT 06/03 A302 RMK A01 T00610026  RH  080%=      5-min Rain = 0
KFAS 051505Z 35022G27KT 06/03 A3021 RMK A01 T00610026  RH  080%=      5-min Rain = 0
KFAS 051510Z 35024G29KT 06/03 A3021 RMK A01 T00590028  RH  082%=      5-min Rain = 0
KFAS 051515Z 35021G30KT 06/03 A3021 RMK A01 T00590028  RH  082%=      5-min Rain = 0
KFAS 051520Z 35023G33KT 06/03 A3021 RMK A01 T00620027  RH  080%=      5-min Rain = 0
KFAS 051525Z 00025G32KT 06/03 A3021 RMK A01 T00610028  RH  081%=      5-min Rain = 0
KFAS 051530Z 00022G28KT 06/03 A3021 RMK A01 T00640028  RH  079%=      5-min Rain = 0
KFAS 051535Z 00021G27KT 07/03 A3022 RMK A01 T00700030  RH  077%=      5-min Rain = 0
KFAS 051540Z 00023G31KT 07/03 A3022 RMK A01 T00740030  RH  075%=      5-min Rain = 0
KFAS 051545Z 00026G33KT 08/03 A3022 RMK A01 T00770029  RH  073%=      5-min Rain = 0
KFAS 051550Z 00026G32KT 08/03 A3022 RMK A01 T00780030  RH  073%=      5-min Rain = 0
KFAS 051555Z 01028G35KT 08/03 A3022 RMK A01 T00760029  RH  073%=      5-min Rain = 0
KFAS 051600Z 36024G31KT 08/03 A3022 RMK A01 T00790031  RH  073%=      5-min Rain = 0
KFAS 051605Z 00025G34KT 08/03 A3023 RMK A01 T00790031  RH  073%=      5-min Rain = 0
KFAS 051610Z 00024G29KT 08/03 A3023 RMK A01 T00790032  RH  074%=      5-min Rain = 0
KFAS 051615Z 36025G34KT 08/03 A3023 RMK A01 T00790033  RH  074%=      5-min Rain = 0
KFAS 051620Z 00025G32KT 08/03 A3024 RMK A01 T00770033  RH  075%=      5-min Rain = 0
KFAS 051625Z 00022G29KT 08/03 A3024 RMK A01 T00790033  RH  074%=      5-min Rain = 0
KFAS 051630Z 36023G29KT 08/03 A3024 RMK A01 T00800032  RH  073%=      5-min Rain = 0
KFAS 051635Z 00025G31KT 08/03 A3024 RMK A01 T00800031  RH  072%=      5-min Rain = 0
KFAS 051640Z 00024G30KT 08/03 A3024 RMK A01 T00800031  RH  072%=      5-min Rain = 0
KFAS 051645Z 36026G33KT 08/03 A3025 RMK A01 T00800030  RH  072%=      5-min Rain = 0
KFAS 051650Z 36025G31KT 08/03 A3025 RMK A01 T00790030  RH  072%=      5-min Rain = 0
KFAS 051655Z 00024G30KT 08/03 A3025 RMK A01 T00790031  RH  073%=      5-min Rain = 0
KFAS 051700Z 36025G33KT 08/03 A3025 RMK A01 T00800033  RH  073%=      5-min Rain = 0
KFAS 051705Z 01026G34KT 08/03 A3026 RMK A01 T00790034  RH  074%=      5-min Rain = 0
KFAS 051710Z 01024G32KT 08/03 A3026 RMK A01 T00780034  RH  075%=      5-min Rain = 0
KFAS 051715Z 01024G30KT 08/04 A3026 RMK A01 T00760036  RH  077%=      5-min Rain = 0
KFAS 051720Z 01024G29KT 08/04 A3027 RMK A01 T00760038  RH  078%=      5-min Rain = 0
KFAS 051725Z 00024G30KT 08/04 A3027 RMK A01 T00770037  RH  077%=      5-min Rain = 0
KFAS 051730Z 01023G31KT 08/04 A3027 RMK A01 T00790039  RH  077%=      5-min Rain = 0
KFAS 051735Z 01024G30KT 08/04 A3027 RMK A01 T00820038  RH  075%=      5-min Rain = 0
KFAS 051740Z 00024G29KT 08/04 A3027 RMK A01 T00820038  RH  075%=      5-min Rain = 0
KFAS 051745Z 01022G29KT 08/04 A3027 RMK A01 T00800038  RH  076%=      5-min Rain = 0
KFAS 051750Z 01025G32KT 08/04 A3027 RMK A01 T00820039  RH  076%=      5-min Rain = 0
KFAS 051755Z 01022G28KT 09/04 A3027 RMK A01 T00880041  RH  074%=      5-min Rain = 0
KFAS 051800Z 00025G31KT 08/04 A3028 RMK A01 T00790038  RH  077%=      5-min Rain = 0
KFAS 051805Z 01022G28KT 08/04 A3028 RMK A01 T00790044  RH  080%=      5-min Rain = 0
KFAS 051810Z 01022G28KT 09/04 A3027 RMK A01 T00880044  RH  076%=      5-min Rain = 0
KFAS 051815Z 01024KT 08/04 A3028 RMK A01 T00840039  RH  075%=      5-min Rain = 0
KFAS 051820Z 01023G30KT 08/04 A3028 RMK A01 T00780038  RH  077%=      5-min Rain = 0
KFAS 051825Z 01023G32KT 08/04 A3028 RMK A01 T00750040  RH  080%=      5-min Rain = 0
KFAS 051830Z 02023G28KT 08/04 A3028 RMK A01 T00810042  RH  078%=      5-min Rain = 0
KFAS 051835Z 02025G31KT 09/04 A3028 RMK A01 T00870037  RH  072%=      5-min Rain = 0
KFAS 051840Z 02022G27KT 08/04 A3029 RMK A01 T00820036  RH  074%=      5-min Rain = 0
KFAS 051845Z 02021G27KT 09/04 A3029 RMK A01 T00850039  RH  074%=      5-min Rain = 0
KFAS 051850Z 02023KT 09/04 A3028 RMK A01 T00880036  RH  071%=      5-min Rain = 0
KFAS 051855Z 02023KT 08/03 A3028 RMK A01 T00840033  RH  072%=      5-min Rain = 0
KFAS 051900Z 02019G24KT 08/04 A3029 RMK A01 T00830035  RH  073%=      5-min Rain = 0
KFAS 051905Z 02018G24KT 08/04 A3029 RMK A01 T00840035  RH  072%=      5-min Rain = 0
KFAS 051910Z 02018KT 09/04 A3028 RMK A01 T00860035  RH  072%=      5-min Rain = 0
KFAS 051915Z 02019G25KT 09/04 A3028 RMK A01 T00860036  RH  072%=      5-min Rain = 0
KFAS 051920Z 01019G27KT 09/04 A3028 RMK A01 T00850035  RH  072%=      5-min Rain = 0
KFAS 051925Z 01021G27KT 08/03 A3028 RMK A01 T00820034  RH  073%=      5-min Rain = 0
KFAS 051930Z 02022KT 09/04 A3028 RMK A01 T00860036  RH  072%=      5-min Rain = 0
KFAS 051935Z 02021G26KT 09/04 A3028 RMK A01 T00910037  RH  070%=      5-min Rain = 0
KFAS 051940Z 02023G28KT 09/04 A3028 RMK A01 T00930035  RH  068%=      5-min Rain = 0
KFAS 051945Z 02023KT 10/04 A3028 RMK A01 T00980035  RH  066%=      5-min Rain = 0
KFAS 051950Z 01023KT 10/03 A3027 RMK A01 T01000034  RH  065%=      5-min Rain = 0
KFAS 051955Z 01022G27KT 10/03 A3027 RMK A01 T00980032  RH  065%=      5-min Rain = 0
KFAS 052000Z 01022G28KT 10/03 A3027 RMK A01 T01000032  RH  064%=      5-min Rain = 0
KFAS 052005Z 01021G27KT 10/03 A3027 RMK A01 T00980032  RH  064%=      5-min Rain = 0
KFAS 052010Z 01022G27KT 09/03 A3028 RMK A01 T00940031  RH  066%=      5-min Rain = 0
KFAS 052015Z 01019KT 09/03 A3028 RMK A01 T00900032  RH  068%=      5-min Rain = 0
KFAS 052020Z 00020G25KT 09/03 A3028 RMK A01 T00930034  RH  068%=      5-min Rain = 0
KFAS 052025Z 01020G26KT 10/03 A3028 RMK A01 T00960034  RH  066%=      5-min Rain = 0
KFAS 052030Z 01020G26KT 10/03 A3028 RMK A01 T00980033  RH  065%=      5-min Rain = 0
KFAS 052035Z 01022G28KT 09/03 A3028 RMK A01 T00920032  RH  067%=      5-min Rain = 0
KFAS 052040Z 01019G24KT 10/04 A3028 RMK A01 T00970035  RH  067%=      5-min Rain = 0
KFAS 052045Z 00018KT 09/03 A3028 RMK A01 T00930034  RH  068%=      5-min Rain = 0
KFAS 052050Z 00019G24KT 09/03 A3029 RMK A01 T00910034  RH  069%=      5-min Rain = 0
KFAS 052055Z 01017KT 09/04 A3029 RMK A01 T00940037  RH  069%=      5-min Rain = 0
KFAS 052100Z 01018G24KT 10/04 A3029 RMK A01 T00960036  RH  067%=      5-min Rain = 0
KFAS 052105Z 01017G22KT 10/04 A3029 RMK A01 T00990039  RH  067%=      5-min Rain = 0
KFAS 052110Z 01019G24KT 10/04 A3029 RMK A01 T01020038  RH  066%=      5-min Rain = 0
KFAS 052115Z 01018G23KT 10/04 A3029 RMK A01 T01020039  RH  066%=      5-min Rain = 0
KFAS 052120Z 00017G23KT 10/04 A3029 RMK A01 T01040040  RH  066%=      5-min Rain = 0
KFAS 052125Z 01016KT 11/04 A3029 RMK A01 T01070040  RH  064%=      5-min Rain = 0
KFAS 052130Z 01020KT 11/04 A3029 RMK A01 T01140037  RH  060%=      5-min Rain = 0
KFAS 052135Z 01021KT 11/03 A3029 RMK A01 T01090031  RH  059%=      5-min Rain = 0
KFAS 052140Z 01019KT 11/03 A3029 RMK A01 T01070031  RH  060%=      5-min Rain = 0
KFAS 052145Z 01019G24KT 11/03 A3029 RMK A01 T01100032  RH  060%=      5-min Rain = 0
KFAS 052150Z 02020G26KT 11/03 A3029 RMK A01 T01130032  RH  059%=      5-min Rain = 0
KFAS 052155Z 01019G24KT 12/03 A3029 RMK A01 T01160032  RH  058%=      5-min Rain = 0
KFAS 052200Z 02017G22KT 11/03 A3029 RMK A01 T01140032  RH  058%=      5-min Rain = 0
KFAS 052205Z 02018G25KT 11/03 A3029 RMK A01 T01140031  RH  057%=      5-min Rain = 0
KFAS 052210Z 02018G27KT 12/03 A3029 RMK A01 T01150030  RH  057%=      5-min Rain = 0
KFAS 052215Z 02019KT 12/03 A3029 RMK A01 T01150029  RH  056%=      5-min Rain = 0
KFAS 052220Z 02018KT 11/03 A3029 RMK A01 T01120028  RH  057%=      5-min Rain = 0
KFAS 052225Z 03020KT 11/03 A3029 RMK A01 T01070027  RH  059%=      5-min Rain = 0
KFAS 052230Z 03017KT 11/03 A3029 RMK A01 T01080027  RH  058%=      5-min Rain = 0
KFAS 052235Z 03016G21KT 11/03 A3029 RMK A01 T01120031  RH  059%=      5-min Rain = 0
KFAS 052240Z 02015KT 12/03 A3029 RMK A01 T01150032  RH  058%=      5-min Rain = 0
KFAS 052245Z 02016G21KT 12/03 A3029 RMK A01 T01230034  RH  056%=      5-min Rain = 0
KFAS 052250Z 02017KT 12/03 A3029 RMK A01 T01170031  RH  056%=      5-min Rain = 0
KFAS 052255Z 02016KT 11/03 A3029 RMK A01 T01140031  RH  057%=      5-min Rain = 0
KFAS 052300Z 02015KT 12/03 A3029 RMK A01 T01150032  RH  058%=      5-min Rain = 0
KFAS 052305Z 02017KT 12/03 A3029 RMK A01 T01150029  RH  056%=      5-min Rain = 0
KFAS 052310Z 02016KT 12/03 A3029 RMK A01 T01160026  RH  055%=      5-min Rain = 0
KFAS 052315Z 01016G22KT 12/03 A3029 RMK A01 T01160026  RH  055%=      5-min Rain = 0
KFAS 052320Z 03017KT 12/03 A3029 RMK A01 T01160025  RH  054%=      5-min Rain = 0
KFAS 052325Z 03015G21KT 12/03 A3029 RMK A01 T01160025  RH  054%=      5-min Rain = 0
KFAS 052330Z 02013G18KT 11/03 A3029 RMK A01 T01120026  RH  056%=      5-min Rain = 0
KFAS 052335Z 02013KT 11/03 A3029 RMK A01 T01130027  RH  056%=      5-min Rain = 0
KFAS 052340Z 02014KT 11/03 A3029 RMK A01 T01140026  RH  056%=      5-min Rain = 0
KFAS 052345Z 02014KT 11/03 A3029 RMK A01 T01140027  RH  056%=      5-min Rain = 0
KFAS 052350Z 02014KT 11/03 A3029 RMK A01 T01130027  RH  056%=      5-min Rain = 0
KFAS 052355Z 02014KT 11/03 A3029 RMK A01 T01120027  RH  057%=      5-min Rain = 0
KFAS 060000Z 02014KT 11/03 A3029 RMK A01 T01110025  RH  056%=      5-min Rain = 0
KFAS 060005Z 01011KT 11/02 A3029 RMK A01 T01110024  RH  056%=      5-min Rain = 0
KFAS 060010Z 02013KT 11/02 A3029 RMK A01 T01100023  RH  056%=      5-min Rain = 0
KFAS 060015Z 01011KT 11/02 A3029 RMK A01 T01090021  RH  056%=      5-min Rain = 0
KFAS 060020Z 01012KT 11/02 A3029 RMK A01 T01060022  RH  057%=      5-min Rain = 0
KFAS 060025Z 01012KT 10/02 A303 RMK A01 T01030021  RH  058%=      5-min Rain = 0
KFAS 060030Z 01011KT 10/02 A303 RMK A01 T01010020  RH  058%=      5-min Rain = 0
KFAS 060035Z 01010KT 10/02 A303 RMK A01 T00980018  RH  058%=      5-min Rain = 0
KFAS 060040Z 01010KT 10/02 A303 RMK A01 T00960017  RH  059%=      5-min Rain = 0
KFAS 060045Z 01008KT 09/02 A303 RMK A01 T00910015  RH  060%=      5-min Rain = 0
KFAS 060050Z 01007KT 09/01 A303 RMK A01 T00860013  RH  061%=      5-min Rain = 0
KFAS 060055Z 01007KT 08/01 A303 RMK A01 T00790011  RH  063%=      5-min Rain = 0
KFAS 060100Z 01007KT 07/01 A3031 RMK A01 T00730010  RH  065%=      5-min Rain = 0
KFAS 060105Z 01007KT 07/01 A3031 RMK A01 T00680008  RH  066%=      5-min Rain = 0
KFAS 060110Z 01007KT 06/01 A3031 RMK A01 T00630006  RH  067%=      5-min Rain = 0
KFAS 060115Z 01007KT 06/01 A3031 RMK A01 T00590005  RH  069%=      5-min Rain = 0
KFAS 060120Z 01006KT 06/00 A3031 RMK A01 T00550004  RH  070%=      5-min Rain = 0
KFAS 060125Z 01006KT 05/01 A3031 RMK A01 T00540005  RH  072%=      5-min Rain = 0
KFAS 060130Z 01007KT 05/00 A3031 RMK A01 T00520002  RH  071%=      5-min Rain = 0
KFAS 060135Z 01006KT 05/00 A3031 RMK A01 T00480001  RH  072%=      5-min Rain = 0
KFAS 060140Z 01005KT 05/00 A3031 RMK A01 T00470002  RH  074%=      5-min Rain = 0
KFAS 060145Z 00005KT 05/00 A3032 RMK A01 T00470003  RH  074%=      5-min Rain = 0
KFAS 060150Z 00005KT 05/00 A3032 RMK A01 T00490004  RH  074%=      5-min Rain = 0
KFAS 060155Z 36005KT 05/00 A3032 RMK A01 T00490001  RH  072%=      5-min Rain = 0
KFAS 060200Z 00006KT 04/M00 A3032 RMK A01 T00421003  RH  073%=      5-min Rain = 0
KFAS 060205Z 00006KT 04/M00 A3032 RMK A01 T00401002  RH  075%=      5-min Rain = 0
KFAS 060210Z 00006KT 04/M00 A3032 RMK A01 T00391004  RH  074%=      5-min Rain = 0
KFAS 060215Z 36005KT 04/M00 A3032 RMK A01 T00381004  RH  075%=      5-min Rain = 0
KFAS 060220Z 34004KT 03/M01 A3032 RMK A01 T00341008  RH  074%=      5-min Rain = 0
KFAS 060225Z 34004KT 03/M01 A3033 RMK A01 T00341009  RH  074%=      5-min Rain = 0
KFAS 060230Z 34004KT 03/M01 A3033 RMK A01 T00341009  RH  074%=      5-min Rain = 0
KFAS 060235Z 33004KT 04/M01 A3033 RMK A01 T00351009  RH  074%=      5-min Rain = 0
KFAS 060240Z 32005KT 03/M01 A3033 RMK A01 T00341009  RH  074%=      5-min Rain = 0
KFAS 060245Z 32005KT 03/M01 A3033 RMK A01 T00311009  RH  076%=      5-min Rain = 0
KFAS 060250Z 32004KT 03/M01 A3033 RMK A01 T00311007  RH  077%=      5-min Rain = 0
KFAS 060255Z 32005KT 03/M01 A3034 RMK A01 T00331005  RH  077%=      5-min Rain = 0
KFAS 060300Z 33004KT 03/M01 A3034 RMK A01 T00331006  RH  076%=      5-min Rain = 0
KFAS 060305Z 33004KT 03/M01 A3034 RMK A01 T00331008  RH  075%=      5-min Rain = 0
KFAS 060310Z 33004KT 03/M01 A3034 RMK A01 T00321009  RH  076%=      5-min Rain = 0
KFAS 060315Z 32004KT 03/M01 A3034 RMK A01 T00301008  RH  076%=      5-min Rain = 0
KFAS 060320Z 31004KT 03/M01 A3034 RMK A01 T00301009  RH  076%=      5-min Rain = 0
KFAS 060325Z 30004KT 03/M01 A3034 RMK A01 T00281011  RH  076%=      5-min Rain = 0
KFAS 060330Z 31004KT 03/M01 A3034 RMK A01 T00251013  RH  077%=      5-min Rain = 0
KFAS 060335Z 30003KT 02/M01 A3034 RMK A01 T00241012  RH  077%=      5-min Rain = 0
KFAS 060340Z 29004KT 02/M02 A3034 RMK A01 T00221015  RH  077%=      5-min Rain = 0
KFAS 060345Z 30005KT 02/M02 A3034 RMK A01 T00181016  RH  079%=      5-min Rain = 0
KFAS 060350Z 31005KT 02/M02 A3034 RMK A01 T00181016  RH  079%=      5-min Rain = 0
KFAS 060355Z 31004KT 02/M02 A3034 RMK A01 T00161018  RH  079%=      5-min Rain = 0
KFAS 060400Z 31004KT 02/M02 A3035 RMK A01 T00151018  RH  079%=      5-min Rain = 0
KFAS 060405Z 28004KT 01/M02 A3035 RMK A01 T00141020  RH  079%=      5-min Rain = 0
KFAS 060410Z 28005KT 01/M02 A3034 RMK A01 T00111021  RH  080%=      5-min Rain = 0
KFAS 060415Z 29005KT 01/M02 A3035 RMK A01 T00111021  RH  080%=      5-min Rain = 0
KFAS 060420Z 30005KT 01/M02 A3035 RMK A01 T00121021  RH  080%=      5-min Rain = 0
KFAS 060425Z 30005KT 01/M02 A3035 RMK A01 T00081024  RH  080%=      5-min Rain = 0
KFAS 060430Z 29005KT 01/M02 A3035 RMK A01 T00071024  RH  081%=      5-min Rain = 0
KFAS 060435Z 29005KT 01/M03 A3035 RMK A01 T00061025  RH  081%=      5-min Rain = 0
KFAS 060440Z 29005KT 00/M03 A3035 RMK A01 T00011028  RH  081%=      5-min Rain = 0
KFAS 060445Z 29005KT M00/M03 A3035 RMK A01 T10011027  RH  083%=      5-min Rain = 0
KFAS 060450Z 30005KT M00/M03 A3035 RMK A01 T10011027  RH  083%=      5-min Rain = 0
KFAS 060455Z 31005KT M01/M03 A3035 RMK A01 T10051033  RH  082%=      5-min Rain = 0
KFAS 060500Z 31005KT M01/M03 A3035 RMK A01 T10081034  RH  083%=      5-min Rain = 0
KFAS 060505Z 01006G15KT M01/M03 A3035 RMK A01 T10081032  RH  084%=      5-min Rain = 0
KFAS 060510Z 04004KT 01/M01 A3035 RMK A01 T00121012  RH  085%=      5-min Rain = 0
KFAS 060515Z 09005KT 02/M02 A3035 RMK A01 T00151018  RH  079%=      5-min Rain = 0
KFAS 060520Z 11007KT 00/M03 A3035 RMK A01 T00041030  RH  078%=      5-min Rain = 0
KFAS 060525Z 14006KT M01/M04 A3035 RMK A01 T10061036  RH  081%=      5-min Rain = 0
KFAS 060530Z 14006KT M01/M04 A3035 RMK A01 T10131038  RH  083%=      5-min Rain = 0
KFAS 060535Z 14006KT M02/M04 A3035 RMK A01 T10161038  RH  085%=      5-min Rain = 0
KFAS 060540Z 16004KT M01/M03 A3034 RMK A01 T10111031  RH  087%=      5-min Rain = 0
KFAS 060545Z 15003KT M01/M03 A3034 RMK A01 T10061029  RH  085%=      5-min Rain = 0
KFAS 060550Z 13002KT M01/M04 A3034 RMK A01 T10091035  RH  083%=      5-min Rain = 0
KFAS 060555Z 15002KT M01/M03 A3034 RMK A01 T10111034  RH  085%=      5-min Rain = 0

Page generated in 0.0085 seconds.